createdAt,value
2018-03-26T11:34:34.435Z,977.5
2018-03-26T11:35:37.460Z,977.5
2018-03-26T11:36:40.202Z,977.6
2018-03-26T11:37:43.018Z,977.5
2018-03-26T11:38:46.559Z,977.6
2018-03-26T11:39:49.314Z,977.6
2018-03-26T11:40:52.370Z,977.6
2018-03-26T11:41:55.255Z,977.6
2018-03-26T11:42:58.276Z,977.5
2018-03-26T11:44:00.859Z,977.6
2018-03-26T11:45:04.978Z,977.4
2018-03-26T11:46:15.590Z,977.5
2018-03-26T11:47:18.628Z,977.6
2018-03-26T11:48:21.286Z,977.6
2018-03-26T11:49:23.985Z,977.6
2018-03-26T11:50:26.662Z,977.6
2018-03-26T11:51:29.190Z,977.5
2018-03-26T11:52:38.821Z,977.4
2018-03-26T11:53:41.912Z,977.6
2018-03-26T11:54:44.594Z,977.6
2018-03-26T11:55:47.448Z,977.6
2018-03-26T11:56:50.159Z,977.6
2018-03-26T11:57:52.881Z,977.6
2018-03-26T11:58:55.660Z,977.6
2018-03-26T11:59:58.843Z,977.6
2018-03-26T12:01:02.302Z,977.6
2018-03-26T12:02:05.921Z,977.6
2018-03-26T12:03:10.351Z,977.6
2018-03-26T12:04:21.888Z,977.6
2018-03-26T12:05:25.696Z,977.6
2018-03-26T12:06:28.986Z,977.6
2018-03-26T12:07:31.687Z,977.6
2018-03-26T12:08:34.258Z,977.6
2018-03-26T12:09:36.987Z,977.5
2018-03-26T12:10:40.008Z,977.7
2018-03-26T12:11:42.996Z,977.6
2018-03-26T12:12:54.978Z,977.6
2018-03-26T12:13:59.084Z,977.6
2018-03-26T12:15:05.078Z,977.6
2018-03-26T12:16:12.762Z,977.4
2018-03-26T12:17:17.921Z,977.6
2018-03-26T12:18:22.863Z,977.6
2018-03-26T12:19:26.864Z,977.6
2018-03-26T12:20:32.583Z,977.6
2018-03-26T12:21:35.220Z,977.6
2018-03-26T12:22:38.023Z,977.6
2018-03-26T12:23:41.466Z,977.4
2018-03-26T12:24:44.289Z,977.6
2018-03-26T12:25:47.303Z,977.6
2018-03-26T12:26:49.883Z,977.6
2018-03-26T12:27:54.280Z,977.6
2018-03-26T12:28:57.217Z,977.5
2018-03-26T12:29:59.945Z,977.6
2018-03-26T12:31:03.082Z,977.6
2018-03-26T12:32:07.128Z,977.5
2018-03-26T12:33:10.469Z,977.5
2018-03-26T12:34:13.530Z,977.5
2018-03-26T12:35:16.376Z,977.5
2018-03-26T12:36:24.044Z,977.4
2018-03-26T12:37:26.772Z,977.5
2018-03-26T12:38:29.846Z,977.5
2018-03-26T12:39:32.628Z,977.5
2018-03-26T12:40:40.542Z,977.4
2018-03-26T12:41:45.535Z,977.3
2018-03-26T12:42:48.222Z,977.5
2018-03-26T12:43:51.046Z,977.5
2018-03-26T12:44:54.022Z,977.5
2018-03-26T12:45:57.919Z,977.5
2018-03-26T12:47:15.012Z,977.5
2018-03-26T12:48:17.730Z,977.5
2018-03-26T12:49:20.470Z,977.6
2018-03-26T12:50:24.512Z,977.5
2018-03-26T12:51:27.308Z,977.5
2018-03-26T12:52:34.443Z,977.6
2018-03-26T12:53:37.378Z,977.6
2018-03-26T12:54:40.051Z,977.5
2018-03-26T12:55:42.972Z,977.6
2018-03-26T12:56:46.105Z,977.6
2018-03-26T12:57:49.154Z,977.5
2018-03-26T12:58:51.865Z,977.6
2018-03-26T12:59:54.922Z,977.5
2018-03-26T13:00:58.083Z,977.6
2018-03-26T13:02:03.937Z,977.6
2018-03-26T13:03:07.976Z,977.5
2018-03-26T13:04:11.198Z,977.6
2018-03-26T13:05:15.747Z,977.6
2018-03-26T13:06:20.336Z,977.6
2018-03-26T13:07:24.152Z,977.6
2018-03-26T13:08:30.321Z,977.6
2018-03-26T13:09:33.327Z,977.7
2018-03-26T13:10:36.218Z,977.7
2018-03-26T13:11:39.918Z,977.6
2018-03-26T13:12:42.768Z,977.6
2018-03-26T13:13:46.087Z,977.6
2018-03-26T13:14:48.927Z,977.6
2018-03-26T13:15:53.306Z,977.6
2018-03-26T13:16:56.535Z,977.6
2018-03-26T13:17:59.436Z,977.6
2018-03-26T13:19:03.194Z,977.6
2018-03-26T13:20:06.980Z,977.6
2018-03-26T13:21:10.203Z,977.6
2018-03-26T13:22:16.491Z,977.5
2018-03-26T13:23:19.972Z,977.6
2018-03-26T13:24:23.143Z,977.6
2018-03-26T13:25:26.571Z,977.6
2018-03-26T13:26:29.488Z,977.6
2018-03-26T13:27:32.494Z,977.5
2018-03-26T13:28:35.795Z,977.6
2018-03-26T13:29:39.700Z,977.6
2018-03-26T13:30:43.384Z,977.6
2018-03-26T13:31:47.220Z,977.6
2018-03-26T13:32:50.756Z,977.6
2018-03-26T13:33:53.377Z,977.6
2018-03-26T13:34:57.238Z,977.6
2018-03-26T13:36:00.863Z,977.6
2018-03-26T13:37:03.663Z,977.6
2018-03-26T13:38:07.838Z,977.6
2018-03-26T13:39:11.398Z,977.6
2018-03-26T13:40:15.172Z,977.7
2018-03-26T13:41:29.149Z,977.6
2018-03-26T13:42:32.858Z,977.6
2018-03-26T13:43:35.499Z,977.6
2018-03-26T13:44:38.084Z,977.6
2018-03-26T13:45:40.850Z,977.6
2018-03-26T13:46:44.652Z,977.5
2018-03-26T13:47:48.738Z,977.6
2018-03-26T13:48:53.267Z,977.6
2018-03-26T13:49:57.973Z,977.6
2018-03-26T13:51:03.266Z,977.6
2018-03-26T13:52:07.195Z,977.6
2018-03-26T13:53:09.982Z,977.7
2018-03-26T13:54:13.847Z,977.7
2018-03-26T13:55:17.482Z,977.7
2018-03-26T13:56:21.595Z,977.7
2018-03-26T13:57:25.628Z,977.6
2018-03-26T13:58:28.638Z,977.7
2018-03-26T13:59:31.751Z,977.7
2018-03-26T14:00:34.664Z,977.7
2018-03-26T14:01:37.553Z,977.7
2018-03-26T14:02:40.374Z,977.8
2018-03-26T14:03:43.428Z,977.8
2018-03-26T14:04:47.388Z,977.8
2018-03-26T14:05:50.337Z,977.6
2018-03-26T14:06:53.289Z,977.8
2018-03-26T14:07:56.705Z,977.8
2018-03-26T14:08:59.392Z,977.8
2018-03-26T14:10:03.136Z,977.8
2018-03-26T14:11:06.213Z,977.8
2018-03-26T14:12:16.779Z,977.9
2018-03-26T14:13:20.185Z,977.8
2018-03-26T14:14:26.640Z,977.9
2018-03-26T14:15:29.642Z,977.9
2018-03-26T14:16:32.632Z,977.8
2018-03-26T14:17:36.544Z,977.8
2018-03-26T14:18:41.246Z,977.8
2018-03-26T14:19:45.339Z,977.8
2018-03-26T14:20:49.010Z,977.8
2018-03-26T14:21:52.305Z,977.9
2018-03-26T14:22:55.331Z,977.7
2018-03-26T14:23:58.378Z,977.7
2018-03-26T14:25:03.399Z,977.8
2018-03-26T14:26:06.804Z,977.9
2018-03-26T14:27:09.674Z,978
2018-03-26T14:28:13.373Z,977.9
2018-03-26T14:29:17.100Z,977.7
2018-03-26T14:30:20.455Z,977.8
2018-03-26T14:31:23.216Z,977.9
2018-03-26T14:32:27.107Z,977.9
2018-03-26T14:33:32.879Z,977.6
2018-03-26T14:34:36.331Z,977.9
2018-03-26T14:35:39.512Z,977.9
2018-03-26T14:36:42.425Z,977.9
2018-03-26T14:37:46.714Z,977.9
2018-03-26T14:38:49.650Z,977.9
2018-03-26T14:39:52.403Z,977.9
2018-03-26T14:40:55.135Z,977.9
2018-03-26T14:41:58.062Z,978
2018-03-26T14:43:00.661Z,977.9
2018-03-26T14:44:03.558Z,978
2018-03-26T14:45:07.478Z,978
2018-03-26T14:46:10.762Z,977.8
2018-03-26T14:47:24.812Z,978
2018-03-26T14:48:32.057Z,978
2018-03-26T14:49:35.388Z,978
2018-03-26T14:50:38.352Z,978
2018-03-26T14:51:41.854Z,977.9
2018-03-26T14:52:45.370Z,977.9
2018-03-26T14:53:48.239Z,977.9
2018-03-26T14:54:51.639Z,977.8
2018-03-26T14:55:54.451Z,977.9
2018-03-26T14:56:57.586Z,977.9
2018-03-26T14:58:00.536Z,977.9
2018-03-26T14:59:04.466Z,977.9
2018-03-26T15:00:09.696Z,977.9
2018-03-26T15:01:15.076Z,977.9
2018-03-26T15:02:19.635Z,977.9
2018-03-26T15:03:22.609Z,977.9
2018-03-26T15:04:26.093Z,977.8
2018-03-26T15:05:29.133Z,977.9
2018-03-26T15:06:31.944Z,977.9
2018-03-26T15:07:34.738Z,977.9
2018-03-26T15:08:37.671Z,977.9
2018-03-26T15:09:40.846Z,977.9
2018-03-26T15:10:44.682Z,978
2018-03-26T15:11:49.213Z,978
2018-03-26T15:12:53.564Z,978
2018-03-26T15:13:59.189Z,978
2018-03-26T15:15:07.498Z,978
2018-03-26T15:16:23.794Z,978
2018-03-26T15:17:31.073Z,977.9
2018-03-26T15:18:38.890Z,978
2018-03-26T15:19:44.529Z,978
2018-03-26T15:20:49.142Z,978
2018-03-26T15:21:53.052Z,978
2018-03-26T15:22:58.592Z,978
2018-03-26T15:24:01.387Z,978
2018-03-26T15:25:07.806Z,978
2018-03-26T15:26:11.290Z,978
2018-03-26T15:27:14.983Z,978
2018-03-26T15:28:18.345Z,977.7
2018-03-26T15:29:21.376Z,978
2018-03-26T15:30:24.230Z,978
2018-03-26T15:31:27.567Z,977.9
2018-03-26T15:32:30.286Z,978
2018-03-26T15:33:34.226Z,977.8
2018-03-26T15:34:37.497Z,977.9
2018-03-26T15:35:40.377Z,977.8
2018-03-26T15:36:43.108Z,977.8
2018-03-26T15:37:46.821Z,977.9
2018-03-26T15:38:49.605Z,977.8
2018-03-26T15:39:52.394Z,977.8
2018-03-26T15:40:55.942Z,977.9
2018-03-26T15:41:58.600Z,977.9
2018-03-26T15:43:01.381Z,977.9
2018-03-26T15:44:05.495Z,978
2018-03-26T15:45:09.497Z,978
2018-03-26T15:46:12.319Z,978
2018-03-26T15:47:15.260Z,977.9
2018-03-26T15:48:18.387Z,978
2018-03-26T15:49:21.644Z,978
2018-03-26T15:50:31.611Z,978
2018-03-26T15:51:34.633Z,978
2018-03-26T15:52:37.280Z,978
2018-03-26T15:53:40.019Z,978
2018-03-26T15:54:42.752Z,978
2018-03-26T15:55:45.752Z,978
2018-03-26T15:56:48.925Z,978
2018-03-26T15:57:53.079Z,978
2018-03-26T15:58:55.946Z,978
2018-03-26T15:59:59.198Z,978
2018-03-26T16:01:02.170Z,978
2018-03-26T16:02:05.205Z,978
2018-03-26T16:03:08.865Z,978
2018-03-26T16:04:11.942Z,978
2018-03-26T16:05:15.939Z,978
2018-03-26T16:06:18.956Z,977.9
2018-03-26T16:07:29.512Z,978
2018-03-26T16:08:32.691Z,978
2018-03-26T16:09:35.449Z,978.1
2018-03-26T16:10:38.271Z,978
2018-03-26T16:11:40.886Z,978
2018-03-26T16:12:43.870Z,978
2018-03-26T16:13:47.461Z,978
2018-03-26T16:14:54.471Z,978.1
2018-03-26T16:15:57.570Z,978.1
2018-03-26T16:17:01.846Z,978.1
2018-03-26T16:18:07.011Z,978.1
2018-03-26T16:19:09.772Z,978.1
2018-03-26T16:20:12.514Z,978.1
2018-03-26T16:21:15.232Z,978.1
2018-03-26T16:22:17.979Z,978.1
2018-03-26T16:23:20.858Z,978.1
2018-03-26T16:24:27.662Z,978
2018-03-26T16:25:30.356Z,978.1
2018-03-26T16:26:33.789Z,978.1
2018-03-26T16:27:36.568Z,978.2
2018-03-26T16:28:39.235Z,978.2
2018-03-26T16:29:42.265Z,978
2018-03-26T16:30:45.265Z,978.2
2018-03-26T16:31:48.292Z,978.2
2018-03-26T16:32:52.097Z,978.2
2018-03-26T16:33:54.611Z,978.2
2018-03-26T16:34:57.536Z,978.1
2018-03-26T16:36:00.609Z,978.2
2018-03-26T16:37:03.545Z,978.2
2018-03-26T16:38:06.363Z,978.2
2018-03-26T16:39:09.085Z,978.2
2018-03-26T16:40:11.972Z,978.2
2018-03-26T16:41:21.919Z,978
2018-03-26T16:42:24.768Z,978.3
2018-03-26T16:43:27.987Z,978.3
2018-03-26T16:44:30.884Z,978.2
2018-03-26T16:45:33.783Z,978.3
2018-03-26T16:46:36.644Z,978.3
2018-03-26T16:47:40.983Z,978.3
2018-03-26T16:48:43.589Z,978.4
2018-03-26T16:49:46.839Z,978.2
2018-03-26T16:50:49.832Z,978.4
2018-03-26T16:51:53.485Z,978.4
2018-03-26T16:52:56.468Z,978.4
2018-03-26T16:53:59.663Z,978.3
2018-03-26T16:55:02.434Z,978.4
2018-03-26T16:56:05.032Z,978.4
2018-03-26T16:57:07.978Z,978.5
2018-03-26T16:58:11.697Z,978.4
2018-03-26T16:59:14.547Z,978.5
2018-03-26T17:00:17.186Z,978.5
2018-03-26T17:01:19.986Z,978.5
2018-03-26T17:02:22.659Z,978.4
2018-03-26T17:03:25.585Z,978.4
2018-03-26T17:04:28.585Z,978.5
2018-03-26T17:05:33.028Z,978.3
2018-03-26T17:06:35.956Z,978.4
2018-03-26T17:07:40.758Z,978.4
2018-03-26T17:08:43.487Z,978.4
2018-03-26T17:09:46.724Z,978.4
2018-03-26T17:10:50.143Z,978.5
2018-03-26T17:11:52.921Z,978.5
2018-03-26T17:12:56.278Z,978.5
2018-03-26T17:13:59.077Z,978.5
2018-03-26T17:15:02.710Z,978.5
2018-03-26T17:16:05.401Z,978.5
2018-03-26T17:17:08.565Z,978.5
2018-03-26T17:18:11.302Z,978.5
2018-03-26T17:19:14.139Z,978.5
2018-03-26T17:20:17.399Z,978.5
2018-03-26T17:21:20.006Z,978.5
2018-03-26T17:22:22.841Z,978.6
2018-03-26T17:23:26.010Z,978.4
2018-03-26T17:24:28.951Z,978.6
2018-03-26T17:25:32.172Z,978.4
2018-03-26T17:26:35.445Z,978.5
2018-03-26T17:27:38.295Z,978.6
2018-03-26T17:28:41.493Z,978.6
2018-03-26T17:29:44.326Z,978.7
2018-03-26T17:30:47.482Z,978.6
2018-03-26T17:31:51.281Z,978.6
2018-03-26T17:32:54.119Z,978.7
2018-03-26T17:33:56.896Z,978.7
2018-03-26T17:34:59.936Z,978.7
2018-03-26T17:36:03.290Z,978.7
2018-03-26T17:37:06.367Z,978.4
2018-03-26T17:38:09.519Z,978.6
2018-03-26T17:39:12.538Z,978.8
2018-03-26T17:40:15.170Z,978.7
2018-03-26T17:41:17.924Z,978.7
2018-03-26T17:43:29.709Z,978.7
2018-03-26T17:44:33.952Z,978.7
2018-03-26T17:45:36.564Z,978.7
2018-03-26T17:46:39.230Z,978.7
2018-03-26T17:47:41.830Z,978.6
2018-03-26T17:48:44.742Z,978.8
2018-03-26T17:49:47.464Z,978.8
2018-03-26T17:50:50.117Z,978.8
2018-03-26T17:51:52.951Z,978.6
2018-03-26T17:52:55.847Z,978.6
2018-03-26T17:53:58.754Z,978.8
2018-03-26T17:55:04.097Z,978.7
2018-03-26T17:57:19.797Z,978.7
2018-03-26T17:58:22.616Z,978.7
2018-03-26T17:59:25.261Z,978.8
2018-03-26T18:00:27.928Z,978.7
2018-03-26T18:01:30.661Z,978.8
2018-03-26T18:02:33.285Z,978.8
2018-03-26T18:03:35.859Z,978.8
2018-03-26T18:04:39.317Z,978.8
2018-03-26T18:05:42.194Z,978.8
2018-03-26T18:06:44.802Z,978.8
2018-03-26T18:07:47.519Z,978.8
2018-03-26T18:08:50.532Z,978.8
2018-03-26T18:09:54.043Z,978.8
2018-03-26T18:10:57.966Z,978.9
2018-03-26T18:12:02.619Z,978.8
2018-03-26T18:13:05.678Z,978.7
2018-03-26T18:14:09.281Z,978.9
2018-03-26T18:15:15.570Z,978.8
2018-03-26T18:16:19.298Z,978.8
2018-03-26T18:17:22.939Z,978.9
2018-03-26T18:18:25.638Z,978.9
2018-03-26T18:19:28.417Z,978.9
2018-03-26T18:20:31.167Z,978.9
2018-03-26T18:21:33.785Z,978.7
2018-03-26T18:22:36.858Z,978.9
2018-03-26T18:23:39.564Z,978.9
2018-03-26T18:24:43.677Z,979
2018-03-26T18:25:46.951Z,979
2018-03-26T18:26:49.663Z,979
2018-03-26T18:27:53.190Z,979
2018-03-26T18:28:56.049Z,979
2018-03-26T18:29:58.849Z,979
2018-03-26T18:31:01.515Z,979
2018-03-26T18:32:07.617Z,979
2018-03-26T18:33:20.628Z,979
2018-03-26T18:34:23.319Z,979
2018-03-26T18:35:25.955Z,978.9
2018-03-26T18:36:29.148Z,979
2018-03-26T18:37:34.732Z,979
2018-03-26T18:38:37.476Z,979
2018-03-26T18:39:40.150Z,979
2018-03-26T18:40:42.813Z,979
2018-03-26T18:41:46.872Z,979
2018-03-26T18:42:49.692Z,979.1
2018-03-26T18:43:56.901Z,979.1
2018-03-26T18:44:59.923Z,978.9
2018-03-26T18:46:02.628Z,979.1
2018-03-26T18:47:09.277Z,979
2018-03-26T18:48:11.978Z,979.1
2018-03-26T18:49:21.466Z,978.9
2018-03-26T18:50:24.318Z,979.1
2018-03-26T18:51:30.426Z,979.1
2018-03-26T18:52:33.214Z,979.1
2018-03-26T18:53:35.898Z,979.1
2018-03-26T18:54:38.697Z,979.1
2018-03-26T18:55:41.248Z,979.1
2018-03-26T18:56:44.016Z,978.9
2018-03-26T18:57:46.577Z,979.1
2018-03-26T18:58:49.938Z,979.1
2018-03-26T18:59:52.543Z,979.1
2018-03-26T19:00:55.195Z,979.1
2018-03-26T19:01:58.039Z,979.1
2018-03-26T19:03:00.843Z,979.1
2018-03-26T19:04:03.784Z,979.1
2018-03-26T19:05:06.613Z,979.1
2018-03-26T19:06:09.279Z,979.1
2018-03-26T19:07:11.994Z,979.2
2018-03-26T19:08:15.484Z,979.2
2018-03-26T19:09:18.232Z,979.2
2018-03-26T19:10:21.267Z,979.2
2018-03-26T19:11:23.956Z,979.2
2018-03-26T19:12:26.842Z,979.2
2018-03-26T19:13:29.641Z,979.2
2018-03-26T19:14:32.959Z,979.1
2018-03-26T19:15:35.909Z,979.2
2018-03-26T19:16:42.841Z,979.2
2018-03-26T19:17:45.525Z,979.2
2018-03-26T19:18:48.276Z,979.3
2018-03-26T19:19:50.822Z,979.3
2018-03-26T19:20:53.422Z,979.3
2018-03-26T19:21:56.160Z,979.3
2018-03-26T19:22:58.973Z,979.3
2018-03-26T19:24:02.162Z,979.2
2018-03-26T19:25:04.786Z,979.3
2018-03-26T19:26:07.483Z,979.3
2018-03-26T19:27:10.237Z,979.3
2018-03-26T19:28:12.834Z,979.4
2018-03-26T19:29:15.450Z,979.4
2018-03-26T19:30:18.115Z,979.4
2018-03-26T19:31:20.688Z,979.4
2018-03-26T19:32:23.480Z,979.4
2018-03-26T19:33:26.385Z,979.4
2018-03-26T19:34:29.225Z,979.4
2018-03-26T19:35:32.422Z,979.1
2018-03-26T19:36:35.034Z,979.4
2018-03-26T19:37:37.900Z,979.4
2018-03-26T19:38:40.509Z,979.4
2018-03-26T19:39:43.131Z,979.5
2018-03-26T19:40:45.804Z,979.4
2018-03-26T19:41:48.539Z,979.5
2018-03-26T19:42:52.119Z,979.4
2018-03-26T19:43:54.884Z,979.5
2018-03-26T19:44:57.585Z,979.5
2018-03-26T19:46:00.239Z,979.5
2018-03-26T19:47:03.360Z,979.5
2018-03-26T19:48:05.890Z,979.5
2018-03-26T19:49:08.527Z,979.5
2018-03-26T19:50:11.202Z,979.4
2018-03-26T19:51:13.793Z,979.5
2018-03-26T19:52:16.521Z,979.4
2018-03-26T19:53:19.222Z,979.5
2018-03-26T19:54:22.445Z,979.4
2018-03-26T19:55:25.393Z,979.4
2018-03-26T19:56:28.538Z,979.5
2018-03-26T19:57:31.219Z,979.5
2018-03-26T19:58:34.029Z,979.5
2018-03-26T19:59:37.174Z,979.5
2018-03-26T20:00:39.854Z,979.5
2018-03-26T20:01:42.473Z,979.5
2018-03-26T20:02:45.391Z,979.6
2018-03-26T20:03:48.226Z,979.4
2018-03-26T20:04:50.762Z,979.6
2018-03-26T20:05:53.376Z,979.6
2018-03-26T20:06:56.826Z,979.5
2018-03-26T20:07:59.553Z,979.6
2018-03-26T20:09:02.337Z,979.6
2018-03-26T20:10:05.669Z,979.6
2018-03-26T20:11:08.424Z,979.6
2018-03-26T20:12:11.304Z,979.6
2018-03-26T20:13:13.852Z,979.6
2018-03-26T20:14:16.360Z,979.7
2018-03-26T20:15:19.052Z,979.5
2018-03-26T20:16:23.479Z,979.6
2018-03-26T20:17:26.199Z,979.7
2018-03-26T20:18:29.228Z,979.4
2018-03-26T20:19:32.740Z,979.6
2018-03-26T20:20:35.513Z,979.5
2018-03-26T20:21:38.173Z,979.6
2018-03-26T20:22:40.807Z,979.6
2018-03-26T20:23:43.433Z,979.6
2018-03-26T20:24:46.671Z,979.7
2018-03-26T20:25:50.336Z,979.6
2018-03-26T20:26:52.901Z,979.7
2018-03-26T20:27:55.512Z,979.5
2018-03-26T20:28:58.142Z,979.6
2018-03-26T20:30:00.757Z,979.7
2018-03-26T20:31:03.621Z,979.6
2018-03-26T20:32:07.020Z,979.6
2018-03-26T20:33:09.902Z,979.7
2018-03-26T20:34:13.008Z,979.7
2018-03-26T20:35:15.598Z,979.7
2018-03-26T20:36:26.273Z,979.7
2018-03-26T20:37:28.979Z,979.6
2018-03-26T20:38:31.651Z,979.7
2018-03-26T20:39:34.295Z,979.7
2018-03-26T20:40:37.023Z,979.7
2018-03-26T20:41:39.642Z,979.7
2018-03-26T20:42:42.257Z,979.7
2018-03-26T20:43:44.872Z,979.7
2018-03-26T20:44:47.572Z,979.8
2018-03-26T20:45:50.264Z,979.8
2018-03-26T20:46:52.859Z,979.8
2018-03-26T20:47:55.523Z,979.6
2018-03-26T20:48:58.343Z,979.8
2018-03-26T20:50:00.997Z,979.8
2018-03-26T20:51:03.597Z,979.7
2018-03-26T20:52:06.195Z,979.7
2018-03-26T20:53:08.779Z,979.7
2018-03-26T20:54:11.498Z,979.7
2018-03-26T20:55:14.149Z,979.7
2018-03-26T20:56:16.674Z,979.7
2018-03-26T20:57:19.681Z,979.7
2018-03-26T20:58:22.426Z,979.7
2018-03-26T20:59:24.986Z,979.7
2018-03-26T21:00:27.642Z,979.8
2018-03-26T21:01:30.330Z,979.7
2018-03-26T21:02:33.084Z,979.8
2018-03-26T21:03:35.692Z,979.8
2018-03-26T21:04:38.425Z,979.8
2018-03-26T21:05:40.986Z,979.8
2018-03-26T21:06:43.569Z,979.9
2018-03-26T21:07:46.062Z,979.8
2018-03-26T21:08:48.781Z,979.8
2018-03-26T21:09:51.344Z,979.8
2018-03-26T21:10:53.844Z,979.8
2018-03-26T21:11:56.383Z,979.8
2018-03-26T21:12:59.319Z,979.8
2018-03-26T21:14:02.211Z,979.6
2018-03-26T21:15:04.759Z,979.8
2018-03-26T21:16:07.361Z,979.7
2018-03-26T21:17:11.080Z,979.8
2018-03-26T21:18:13.640Z,979.7
2018-03-26T21:19:16.237Z,979.7
2018-03-26T21:20:19.386Z,979.8
2018-03-26T21:21:21.971Z,979.8
2018-03-26T21:22:24.905Z,979.8
2018-03-26T21:23:27.603Z,979.8
2018-03-26T21:24:30.402Z,979.8
2018-03-26T21:25:33.271Z,979.8
2018-03-26T21:26:35.936Z,979.8
2018-03-26T21:27:38.621Z,979.8
2018-03-26T21:28:41.160Z,979.8
2018-03-26T21:29:43.737Z,979.8
2018-03-26T21:30:46.264Z,979.9
2018-03-26T21:31:48.816Z,979.8
2018-03-26T21:32:51.465Z,979.8
2018-03-26T21:33:53.946Z,979.8
2018-03-26T21:34:56.649Z,979.6
2018-03-26T21:35:59.551Z,979.8
2018-03-26T21:37:02.318Z,979.8
2018-03-26T21:38:05.157Z,979.8
2018-03-26T21:39:07.837Z,979.8
2018-03-26T21:40:10.475Z,979.8
2018-03-26T21:41:13.388Z,979.8
2018-03-26T21:42:16.021Z,979.8
2018-03-26T21:43:18.698Z,979.8
2018-03-26T21:44:21.277Z,979.8
2018-03-26T21:45:24.192Z,979.9
2018-03-26T21:46:26.744Z,979.9
2018-03-26T21:47:29.433Z,979.9
2018-03-26T21:48:32.199Z,979.7
2018-03-26T21:49:34.818Z,979.8
2018-03-26T21:50:37.360Z,979.9
2018-03-26T21:51:40.045Z,979.9
2018-03-26T21:52:42.592Z,979.9
2018-03-26T21:53:46.381Z,979.9
2018-03-26T21:54:48.887Z,979.8
2018-03-26T21:55:51.371Z,979.8
2018-03-26T21:56:53.977Z,979.8
2018-03-26T21:57:56.830Z,979.9
2018-03-26T21:58:59.540Z,979.9
2018-03-26T21:59:40.266Z,979.7
2018-03-26T22:00:42.771Z,979.8
2018-03-26T22:01:45.289Z,979.8
2018-03-26T22:02:48.033Z,979.6
2018-03-26T22:03:50.672Z,979.8
2018-03-26T22:04:53.147Z,979.9
2018-03-26T22:05:55.704Z,979.9
2018-03-26T22:06:58.583Z,979.9
2018-03-26T22:08:01.198Z,979.9
2018-03-26T22:09:03.726Z,980
2018-03-26T22:10:06.253Z,979.9
2018-03-26T22:11:08.840Z,980
2018-03-26T22:12:11.437Z,979.8
2018-03-26T22:13:14.184Z,980
2018-03-26T22:14:16.855Z,980
2018-03-26T22:15:19.392Z,980
2018-03-26T22:16:21.960Z,980
2018-03-26T22:17:24.557Z,980
2018-03-26T22:18:27.156Z,980
2018-03-26T22:19:29.832Z,980
2018-03-26T22:20:32.565Z,980.1
2018-03-26T22:21:35.674Z,980
2018-03-26T22:22:38.304Z,980
2018-03-26T22:23:41.030Z,979.9
2018-03-26T22:24:43.595Z,980
2018-03-26T22:25:46.212Z,979.9
2018-03-26T22:26:48.980Z,980
2018-03-26T22:27:51.486Z,980
2018-03-26T22:28:54.059Z,979.8
2018-03-26T22:29:56.566Z,980
2018-03-26T22:30:59.200Z,980
2018-03-26T22:32:01.821Z,980
2018-03-26T22:33:04.473Z,980
2018-03-26T22:34:07.033Z,980
2018-03-26T22:35:09.679Z,979.7
2018-03-26T22:36:12.307Z,979.9
2018-03-26T22:37:14.848Z,979.9
2018-03-26T22:38:17.459Z,980
2018-03-26T22:39:20.135Z,980
2018-03-26T22:40:22.638Z,980
2018-03-26T22:41:25.374Z,980
2018-03-26T22:42:27.884Z,980
2018-03-26T22:43:31.331Z,980
2018-03-26T22:44:33.974Z,979.8
2018-03-26T22:45:37.220Z,980
2018-03-26T22:46:40.543Z,980
2018-03-26T22:47:43.594Z,980
2018-03-26T22:48:46.052Z,980
2018-03-26T22:49:48.631Z,980
2018-03-26T22:50:51.106Z,980
2018-03-26T22:51:53.553Z,980
2018-03-26T22:52:56.094Z,980
2018-03-26T22:53:58.689Z,980
2018-03-26T22:55:01.296Z,980.1
2018-03-26T22:56:03.881Z,980
2018-03-26T22:57:06.391Z,980
2018-03-26T22:58:09.007Z,980
2018-03-26T22:59:11.559Z,980
2018-03-26T23:00:14.030Z,980
2018-03-26T23:01:16.516Z,980
2018-03-26T23:02:19.065Z,980.1
2018-03-26T23:03:21.625Z,980
2018-03-26T23:04:24.168Z,980
2018-03-26T23:05:26.688Z,980
2018-03-26T23:06:29.371Z,980
2018-03-26T23:07:31.860Z,980.1
2018-03-26T23:08:34.321Z,979.8
2018-03-26T23:09:36.851Z,980
2018-03-26T23:10:39.405Z,980
2018-03-26T23:11:41.971Z,980
2018-03-26T23:12:44.448Z,980
2018-03-26T23:13:46.915Z,979.8
2018-03-26T23:14:49.468Z,980.1
2018-03-26T23:15:51.980Z,980
2018-03-26T23:16:54.554Z,980
2018-03-26T23:17:57.046Z,980.1
2018-03-26T23:18:59.610Z,980
2018-03-26T23:20:02.265Z,980
2018-03-26T23:21:04.851Z,980
2018-03-26T23:22:07.417Z,980.1
2018-03-26T23:23:09.996Z,980
2018-03-26T23:24:12.514Z,980
2018-03-26T23:25:15.090Z,980
2018-03-26T23:26:17.616Z,980.1
2018-03-26T23:27:20.205Z,980
2018-03-26T23:28:22.764Z,980
2018-03-26T23:29:25.317Z,980
2018-03-26T23:30:27.828Z,980
2018-03-26T23:31:30.460Z,979.9
2018-03-26T23:32:32.954Z,980
2018-03-26T23:33:35.647Z,980
2018-03-26T23:34:38.166Z,979.9
2018-03-26T23:35:40.678Z,979.9
2018-03-26T23:36:43.203Z,979.9
2018-03-26T23:37:45.699Z,979.9
2018-03-26T23:38:48.206Z,980
2018-03-26T23:39:50.778Z,980
2018-03-26T23:40:53.436Z,980
2018-03-26T23:41:55.911Z,980
2018-03-26T23:42:58.483Z,979.9
2018-03-26T23:44:01.119Z,980
2018-03-26T23:45:03.678Z,979.9
2018-03-26T23:46:06.298Z,979.9
2018-03-26T23:47:08.931Z,979.9
2018-03-26T23:48:11.445Z,980
2018-03-26T23:49:14.081Z,979.9
2018-03-26T23:50:16.625Z,979.9
2018-03-26T23:51:19.644Z,979.9
2018-03-26T23:52:22.132Z,979.7
2018-03-26T23:53:24.698Z,979.9
2018-03-26T23:54:27.259Z,979.9
2018-03-26T23:55:29.868Z,979.9
2018-03-26T23:56:32.478Z,979.9
2018-03-26T23:57:35.089Z,980
2018-03-26T23:58:37.665Z,980
2018-03-26T23:59:40.210Z,979.9
